Time;durP1;ratioP1;P1;durP2;ratioP2;P2;SDS_P1;SDS_P2;PMS_P1;PMS_P2;Temp;Humidity;BMP_temperature;BMP_pressure;BME280_temperature;BME280_humidity;BME280_pressure;Samples;Min_cycle;Max_cycle;Signal;HPM_P1;HPM_P2
2021/10/09 00:00:06;;;;;;;5.72;2.10;;;;;;;15.84;78.33;101945.25;5084878;28;20502;-79
2021/10/09 00:02:33;;;;;;;6.28;2.70;;;;;;;15.86;78.55;101959.66;5084836;28;20054;-79
2021/10/09 00:05:00;;;;;;;3.40;1.60;;;;;;;15.88;78.48;101950.97;5086983;28;20097;-79
2021/10/09 00:07:27;;;;;;;5.18;1.65;;;;;;;15.86;78.64;101948.50;5068414;28;20127;-79
2021/10/09 00:09:58;;;;;;;5.57;2.47;;;;;;;15.82;78.95;101947.59;5082660;28;20054;-78
2021/10/09 00:12:27;;;;;;;5.82;2.33;;;;;;;15.80;79.07;101942.38;5084790;28;20066;-79
2021/10/09 00:14:54;;;;;;;7.43;2.28;;;;;;;15.77;79.11;101931.06;5083815;28;20070;-79
2021/10/09 00:17:23;;;;;;;4.13;2.05;;;;;;;15.73;79.70;101933.75;5085626;28;20050;-79
2021/10/09 00:19:51;;;;;;;4.15;1.55;;;;;;;15.72;79.56;101936.91;5086466;28;20131;-79
2021/10/09 00:22:18;;;;;;;6.10;2.35;;;;;;;15.71;79.82;101933.28;5085998;28;20055;-79
2021/10/09 00:24:45;;;;;;;5.88;2.85;;;;;;;15.70;79.87;101939.25;5084500;28;20055;-79
2021/10/09 00:27:13;;;;;;;3.80;2.13;;;;;;;15.69;79.92;101932.03;5086194;28;20093;-79
2021/10/09 00:29:43;;;;;;;12.00;3.30;;;;;;;15.69;80.12;101937.59;5085653;28;20036;-79
2021/10/09 00:32:09;;;;;;;6.15;3.42;;;;;;;15.69;80.20;101943.19;5084863;28;20048;-79
2021/10/09 00:34:36;;;;;;;4.85;2.50;;;;;;;15.70;80.19;101953.19;5071589;28;20048;-79
2021/10/09 00:37:03;;;;;;;13.38;3.60;;;;;;;15.68;80.59;101947.94;5088192;28;20044;-79
2021/10/09 00:39:30;;;;;;;4.65;2.33;;;;;;;15.68;80.64;101945.16;5087621;28;20113;-79
2021/10/09 00:41:56;;;;;;;5.38;2.22;;;;;;;15.70;80.50;101950.41;5087883;28;20056;-79
2021/10/09 00:44:23;;;;;;;8.75;2.03;;;;;;;15.73;80.47;101952.47;5089578;28;20055;-79
2021/10/09 00:46:51;;;;;;;5.20;1.92;;;;;;;15.73;80.30;101946.88;5087167;28;20037;-79
2021/10/09 00:49:18;;;;;;;5.90;1.90;;;;;;;15.69;80.47;101952.38;5088064;28;20082;-80
2021/10/09 00:51:47;;;;;;;5.68;1.48;;;;;;;15.70;80.42;101950.41;5088539;28;20036;-79
2021/10/09 00:54:15;;;;;;;4.43;1.40;;;;;;;15.71;80.16;101946.44;5090074;28;20042;-79
2021/10/09 00:56:44;;;;;;;1.63;1.23;;;;;;;15.71;80.26;101957.59;5089948;28;20036;-79
2021/10/09 00:59:13;;;;;;;2.42;1.40;;;;;;;15.72;79.94;101951.69;5090289;28;20081;-79
2021/10/09 01:01:43;;;;;;;3.75;1.30;;;;;;;15.75;79.79;101955.75;5085643;28;20048;-79
2021/10/09 01:04:11;;;;;;;2.72;1.30;;;;;;;15.78;79.65;101938.28;5088192;28;20141;-79
2021/10/09 01:06:38;;;;;;;6.20;2.75;;;;;;;15.80;79.52;101949.94;5089679;28;20040;-79
2021/10/09 01:09:05;;;;;;;4.65;1.55;;;;;;;15.79;79.59;101942.69;5087621;28;20032;-79
2021/10/09 01:11:32;;;;;;;5.00;1.42;;;;;;;15.79;79.49;101935.16;5087009;28;20066;-79
2021/10/09 01:13:59;;;;;;;6.15;1.92;;;;;;;15.81;79.24;101940.38;5085562;28;20050;-79
2021/10/09 01:16:28;;;;;;;4.75;1.45;;;;;;;15.83;79.05;101935.25;5086620;28;20179;-79
2021/10/09 01:18:56;;;;;;;2.60;1.42;;;;;;;15.85;78.90;101930.13;5086799;28;20048;-79
2021/10/09 01:21:25;;;;;;;4.35;1.65;;;;;;;15.86;78.99;101942.91;5086577;28;20044;-79
2021/10/09 01:23:52;;;;;;;4.68;1.20;;;;;;;15.87;78.83;101933.38;5086064;28;20513;-79
2021/10/09 01:26:21;;;;;;;8.98;3.05;;;;;;;15.87;78.73;101927.78;5084615;28;20050;-80
2021/10/09 01:28:51;;;;;;;3.15;1.38;;;;;;;15.88;79.01;101926.66;5085128;28;20044;-79
2021/10/09 01:31:19;;;;;;;5.07;1.30;;;;;;;15.89;78.69;101922.66;5088571;28;20047;-79
2021/10/09 01:33:46;;;;;;;3.60;1.23;;;;;;;15.88;78.92;101935.03;5069751;28;20826;-79
2021/10/09 01:36:13;;;;;;;5.30;1.67;;;;;;;15.87;78.54;101913.84;5087781;28;20074;-79
2021/10/09 01:38:40;;;;;;;4.43;1.88;;;;;;;15.88;78.79;101918.25;5088881;28;20055;-79
2021/10/09 01:41:08;;;;;;;3.85;1.67;;;;;;;15.87;78.76;101913.84;5095389;28;20158;-79
2021/10/09 01:43:35;;;;;;;3.97;1.88;;;;;;;15.89;78.72;101911.50;5085980;28;20040;-78
2021/10/09 01:46:02;;;;;;;4.05;1.50;;;;;;;15.89;78.86;101905.09;5087997;28;20105;-79
2021/10/09 01:48:35;;;;;;;6.95;2.83;;;;;;;15.90;78.77;101899.16;5057413;28;20044;-79
2021/10/09 01:51:04;;;;;;;5.70;1.48;;;;;;;15.91;78.73;101898.00;5085777;28;20059;-79
2021/10/09 01:53:31;;;;;;;3.00;1.50;;;;;;;15.93;78.72;101906.03;5085812;28;20488;-79
2021/10/09 01:55:58;;;;;;;3.97;1.50;;;;;;;15.93;78.53;101906.84;5101014;28;20105;-79
2021/10/09 01:58:25;;;;;;;3.30;1.25;;;;;;;15.94;78.78;101916.84;5085941;28;20536;-79
2021/10/09 02:00:52;;;;;;;3.60;1.55;;;;;;;15.95;78.77;101909.28;5086968;28;20047;-79
2021/10/09 02:03:20;;;;;;;3.00;1.80;;;;;;;15.95;78.81;101924.06;5084782;28;20040;-80
2021/10/09 02:05:47;;;;;;;7.50;2.13;;;;;;;15.94;79.09;101916.84;5083400;28;20048;-79
2021/10/09 02:08:15;;;;;;;2.10;1.25;;;;;;;15.93;79.33;101918.00;5086823;28;20044;-80
2021/10/09 02:11:03;;;;;;;5.05;1.55;;;;;;;15.91;79.61;101920.34;5084543;28;20055;-80
2021/10/09 02:16:48;;;;;;;3.05;1.70;;;;;;;15.83;79.74;101910.13;5082586;28;20042;-80
2021/10/09 02:26:54;;;;;;;2.33;1.60;;;;;;;15.73;79.92;101907.81;5086719;28;20040;-80
2021/10/09 02:29:21;;;;;;;7.35;1.63;;;;;;;15.71;79.99;101907.34;5069239;28;20073;-80
2021/10/09 02:31:49;;;;;;;3.05;1.45;;;;;;;15.70;80.02;101911.31;5087559;28;20048;-79
2021/10/09 02:34:16;;;;;;;4.80;1.70;;;;;;;15.69;79.96;101904.91;5085406;28;20044;-79
2021/10/09 02:36:43;;;;;;;4.32;1.60;;;;;;;15.69;79.91;101912.47;5085555;28;20476;-79
2021/10/09 02:39:09;;;;;;;3.50;1.25;;;;;;;15.66;79.79;101910.38;5086354;28;20515;-80
2021/10/09 02:41:36;;;;;;;2.70;0.80;;;;;;;15.63;79.49;101905.50;5086473;28;20056;-79
2021/10/09 02:44:03;;;;;;;1.05;0.90;;;;;;;15.65;79.05;101900.38;5085880;28;20040;-79
2021/10/09 02:46:30;;;;;;;4.47;1.00;;;;;;;15.65;78.62;101897.56;5086508;28;20078;-80
2021/10/09 02:48:57;;;;;;;5.63;0.90;;;;;;;15.67;78.47;101906.44;5085501;28;20089;-79
2021/10/09 02:51:24;;;;;;;3.75;1.70;;;;;;;15.66;78.07;101899.22;5087780;28;20131;-80
2021/10/09 02:53:50;;;;;;;3.47;0.98;;;;;;;15.66;77.91;101899.22;5085766;28;20048;-79
2021/10/09 02:56:17;;;;;;;3.85;1.10;;;;;;;15.66;77.45;101902.00;5086118;28;20221;-80
2021/10/09 02:58:47;;;;;;;3.45;0.80;;;;;;;15.66;77.04;101902.00;5085048;28;20044;-80
2021/10/09 03:01:13;;;;;;;2.55;0.73;;;;;;;15.65;76.47;101898.41;5086490;28;20491;-79
2021/10/09 03:03:40;;;;;;;2.03;0.80;;;;;;;15.67;76.73;101898.06;5083906;28;20044;-79
2021/10/09 03:06:07;;;;;;;1.73;0.70;;;;;;;15.66;76.25;101910.38;5086123;28;20036;-80
2021/10/09 03:08:34;;;;;;;3.03;1.00;;;;;;;15.67;76.30;101917.59;5086792;28;20040;-80
2021/10/09 03:11:00;;;;;;;3.97;0.90;;;;;;;15.64;76.30;101913.53;5085629;28;20097;-79
2021/10/09 03:13:27;;;;;;;1.27;0.77;;;;;;;15.61;76.37;101913.41;5083954;28;20090;-79
2021/10/09 03:15:54;;;;;;;3.25;1.00;;;;;;;15.59;76.20;101904.59;5084570;28;20048;-80
2021/10/09 03:18:21;;;;;;;2.40;1.00;;;;;;;15.59;76.05;101899.81;5085645;28;20040;-80
2021/10/09 03:20:48;;;;;;;4.07;0.80;;;;;;;15.60;76.44;101906.19;5086490;28;20111;-79
2021/10/09 03:23:14;;;;;;;4.03;1.00;;;;;;;15.61;76.37;101899.47;5086770;28;20691;-79
2021/10/09 03:25:41;;;;;;;4.22;1.08;;;;;;;15.59;76.40;101901.78;5083196;28;20051;-79
2021/10/09 03:28:08;;;;;;;2.05;0.75;;;;;;;15.56;76.36;101899.69;5086989;28;20046;-79
2021/10/09 03:30:35;;;;;;;3.05;1.05;;;;;;;15.54;76.65;101908.41;5082871;28;20048;-80
2021/10/09 03:33:01;;;;;;;2.63;0.80;;;;;;;15.52;76.73;101899.59;5083940;28;20043;-78
2021/10/09 03:35:28;;;;;;;2.85;0.73;;;;;;;15.51;76.91;101900.75;5085953;28;20032;-79
2021/10/09 03:37:55;;;;;;;1.77;0.73;;;;;;;15.44;77.32;101897.69;5068373;28;20079;-79
2021/10/09 03:40:23;;;;;;;4.90;1.00;;;;;;;15.40;77.45;101891.19;5083854;28;20056;-79
2021/10/09 03:42:57;;;;;;;1.48;0.93;;;;;;;15.40;77.74;101895.97;5084484;28;20039;-80
2021/10/09 03:45:30;;;;;;;4.35;1.92;;;;;;;15.37;77.95;101891.91;5083498;28;20488;-80
2021/10/09 03:53:02;;;;;;;3.22;1.35;;;;;;;15.31;78.33;101893.28;5084207;28;20036;-80
2021/10/09 03:55:29;;;;;;;7.07;1.38;;;;;;;15.27;78.74;101898.75;5080351;28;20048;-80
2021/10/09 03:57:56;;;;;;;2.42;0.80;;;;;;;15.25;78.70;101889.91;5084414;28;20050;-80
2021/10/09 04:00:23;;;;;;;6.97;1.33;;;;;;;15.25;78.85;101892.69;5082658;28;20054;-80
2021/10/09 04:02:50;;;;;;;6.13;2.17;;;;;;;15.25;79.06;101884.34;5083926;28;20048;-80
2021/10/09 04:05:17;;;;;;;3.75;1.23;;;;;;;15.24;79.22;101877.16;5082089;28;20138;-80
2021/10/09 04:07:44;;;;;;;3.22;1.10;;;;;;;15.21;79.39;101883.41;5085098;28;20117;-80
2021/10/09 04:10:11;;;;;;;1.80;1.00;;;;;;;15.21;79.42;101877.84;5086563;28;20032;-81
2021/10/09 04:12:38;;;;;;;3.05;1.00;;;;;;;15.21;79.57;101882.59;5089743;28;20068;-81
2021/10/09 04:15:05;;;;;;;1.20;0.70;;;;;;;15.21;79.38;101889.00;5086450;28;20040;-81
2021/10/09 04:17:32;;;;;;;2.55;0.60;;;;;;;15.24;79.26;101884.69;5086760;28;20036;-81
2021/10/09 04:19:58;;;;;;;3.08;1.00;;;;;;;15.25;79.30;101889.09;5083629;28;20051;-80
2021/10/09 04:22:25;;;;;;;5.55;1.25;;;;;;;15.24;79.23;101893.88;5069462;28;20048;-81
2021/10/09 04:24:52;;;;;;;3.03;1.23;;;;;;;15.25;79.38;101884.34;5085160;28;20526;-80
2021/10/09 04:27:19;;;;;;;3.08;1.02;;;;;;;15.25;79.28;101898.28;5087448;28;20048;-81
2021/10/09 04:29:46;;;;;;;2.70;1.08;;;;;;;15.27;79.20;101886.78;5099478;28;20058;-81
2021/10/09 04:32:12;;;;;;;3.00;1.00;;;;;;;15.27;79.53;101884.00;5061762;28;20120;-81
2021/10/09 04:34:39;;;;;;;4.80;1.50;;;;;;;15.25;79.57;101891.88;5061811;28;20131;-81
2021/10/09 04:37:06;;;;;;;3.60;0.85;;;;;;;15.26;79.51;101896.31;5088923;28;20515;-81
2021/10/09 04:39:32;;;;;;;2.75;1.20;;;;;;;15.27;79.49;101907.09;5088482;28;20036;-79
2021/10/09 04:42:02;;;;;;;5.35;1.65;;;;;;;15.30;79.49;101910.38;5087803;28;20082;-81
2021/10/09 04:44:29;;;;;;;2.92;1.00;;;;;;;15.30;79.67;101894.47;5087920;28;20085;-80
2021/10/09 04:46:57;;;;;;;3.58;1.20;;;;;;;15.29;79.92;101900.38;5089086;28;20048;-81
2021/10/09 04:49:24;;;;;;;4.85;1.50;;;;;;;15.28;80.02;101905.13;5086584;28;20381;-80
2021/10/09 04:51:50;;;;;;;2.42;1.25;;;;;;;15.23;80.39;101903.41;5088829;28;20054;-81
2021/10/09 04:54:17;;;;;;;7.60;1.63;;;;;;;15.24;80.77;101912.59;5086028;28;20159;-81
2021/10/09 04:56:44;;;;;;;7.05;1.58;;;;;;;15.23;80.73;101920.16;5083647;28;20036;-81
2021/10/09 04:59:10;;;;;;;3.42;1.20;;;;;;;15.23;81.12;101920.16;5087298;28;20101;-80
2021/10/09 05:01:37;;;;;;;1.65;1.25;;;;;;;15.23;81.13;101920.16;5086335;28;20071;-80
2021/10/09 05:04:04;;;;;;;2.17;1.25;;;;;;;15.22;81.50;101924.09;5088190;28;20079;-80
2021/10/09 05:06:31;;;;;;;3.53;1.17;;;;;;;15.20;81.22;101929.19;5087658;28;20078;-80
2021/10/09 05:08:58;;;;;;;3.83;1.42;;;;;;;15.21;81.54;101924.44;5088239;28;20048;-80
2021/10/09 05:11:25;;;;;;;4.53;1.58;;;;;;;15.22;81.33;101926.09;5087712;28;20119;-80
2021/10/09 05:13:51;;;;;;;6.18;1.48;;;;;;;15.22;81.64;101923.28;5086607;28;20070;-80
2021/10/09 05:16:18;;;;;;;2.92;1.60;;;;;;;15.17;82.24;101921.53;5088451;28;20036;-80
2021/10/09 05:18:46;;;;;;;3.22;1.83;;;;;;;15.17;82.39;101923.50;5086223;28;20052;-80
2021/10/09 05:21:13;;;;;;;6.32;2.90;;;;;;;15.17;82.45;101917.91;5088252;28;20497;-80
2021/10/09 05:23:40;;;;;;;4.32;1.50;;;;;;;15.15;82.94;101923.84;5087503;28;20066;-80
2021/10/09 05:26:07;;;;;;;4.90;1.92;;;;;;;15.12;83.03;101913.38;5085053;28;20127;-80
2021/10/09 05:28:45;;;;;;;2.53;1.45;;;;;;;15.10;83.24;101918.50;5086112;28;20043;-80
2021/10/09 05:33:50;;;;;;;6.88;2.47;;;;;;;15.06;83.44;101928.72;5087053;28;20048;-80
2021/10/09 05:36:17;;;;;;;6.63;1.80;;;;;;;15.05;83.64;101924.31;5087638;28;20043;-79
2021/10/09 05:38:44;;;;;;;3.03;1.45;;;;;;;15.04;83.62;101928.25;5089010;28;20054;-79
2021/10/09 05:41:12;;;;;;;6.47;1.52;;;;;;;15.04;83.55;101931.03;5088747;28;20143;-80
2021/10/09 05:43:39;;;;;;;4.50;1.52;;;;;;;15.04;83.20;101933.84;5060270;28;20064;-80
2021/10/09 05:46:06;;;;;;;4.05;1.30;;;;;;;15.01;82.89;101928.94;5086810;28;20155;-80
2021/10/09 05:48:37;;;;;;;8.13;1.67;;;;;;;15.00;83.25;101932.09;5087343;28;20043;-81
2021/10/09 06:45:20;;;;;;;14.02;3.95;;;;;;;14.78;nan;101972.34;5087354;28;20040;-80
2021/10/09 07:01:35;;;;;;;11.73;3.58;;;;;;;14.70;84.52;102001.13;5085580;28;20483;-80
2021/10/09 07:04:02;;;;;;;5.32;3.25;;;;;;;14.72;84.74;101998.00;5085555;28;20040;-80
2021/10/09 07:06:28;;;;;;;11.00;3.55;;;;;;;14.70;84.77;102000.31;5089345;28;20059;-80
2021/10/09 07:08:55;;;;;;;7.95;3.33;;;;;;;14.66;84.92;102000.19;5086977;28;20531;-80
2021/10/09 07:11:22;;;;;;;9.77;2.92;;;;;;;14.66;85.35;102005.78;5084565;28;20063;-80
2021/10/09 07:13:48;;;;;;;11.40;3.63;;;;;;;14.68;85.37;102002.63;5085277;28;20044;-80
2021/10/09 07:16:15;;;;;;;11.30;3.95;;;;;;;14.69;85.42;102002.31;5081989;28;20044;-80
2021/10/09 07:18:42;;;;;;;7.22;3.00;;;;;;;14.69;85.57;102015.44;5085064;28;20047;-80
2021/10/09 07:21:09;;;;;;;11.52;3.17;;;;;;;14.71;85.45;102011.13;5084414;28;20048;-79
2021/10/09 07:23:35;;;;;;;12.45;3.55;;;;;;;14.69;85.57;102010.66;5083575;28;20051;-80
2021/10/09 07:26:02;;;;;;;7.47;3.38;;;;;;;14.72;85.50;102015.53;5084501;28;20028;-79
2021/10/09 07:28:29;;;;;;;5.20;2.55;;;;;;;14.73;85.52;102011.59;5082768;28;20040;-79
2021/10/09 07:30:55;;;;;;;11.50;4.20;;;;;;;14.73;85.38;102011.59;5083226;28;20044;-80
2021/10/09 07:33:22;;;;;;;7.35;4.10;;;;;;;14.73;85.44;102017.19;5085761;28;20044;-79
2021/10/09 07:35:53;;;;;;;23.10;6.15;;;;;;;14.72;85.40;102026.69;5083207;28;20127;-80
2021/10/09 07:38:19;;;;;;;14.98;5.30;;;;;;;14.72;85.31;102021.09;5086049;28;20414;-80
2021/10/09 07:40:46;;;;;;;8.43;2.53;;;;;;;14.72;85.25;102015.53;5083064;28;20052;-79
2021/10/09 07:43:13;;;;;;;6.55;2.38;;;;;;;14.73;85.26;102022.75;5082851;28;20067;-80
2021/10/09 07:45:39;;;;;;;6.13;2.70;;;;;;;14.75;85.06;102017.66;5082781;28;20040;-80
2021/10/09 07:48:06;;;;;;;17.42;3.15;;;;;;;14.68;85.05;102024.94;5084369;28;20044;-80
2021/10/09 07:50:33;;;;;;;5.47;2.42;;;;;;;14.64;85.15;102025.63;5084730;28;20119;-81
2021/10/09 07:53:02;;;;;;;5.82;2.17;;;;;;;14.62;85.17;102027.13;5084136;28;20446;-80
2021/10/09 07:55:28;;;;;;;2.67;1.58;;;;;;;14.63;85.16;102028.75;5084535;28;20047;-80
2021/10/09 07:57:55;;;;;;;2.13;1.25;;;;;;;14.68;84.96;102031.31;5081979;28;20051;-80
2021/10/09 08:00:22;;;;;;;7.10;1.48;;;;;;;14.74;84.64;102029.97;5084584;28;20036;-81
2021/10/09 08:02:50;;;;;;;5.70;1.60;;;;;;;14.80;84.87;102034.16;5084339;28;20070;-80
2021/10/09 08:05:17;;;;;;;3.95;1.40;;;;;;;14.78;84.83;102033.69;5084411;28;20705;-80
2021/10/09 08:07:45;;;;;;;5.80;1.60;;;;;;;14.82;84.48;102031.88;5082399;28;20055;-80
2021/10/09 08:10:12;;;;;;;2.53;1.58;;;;;;;14.86;84.61;102038.38;5083341;28;20434;-81
2021/10/09 08:12:38;;;;;;;5.50;1.73;;;;;;;14.89;84.55;102036.88;5084480;28;20047;-80
2021/10/09 08:15:05;;;;;;;1.75;1.40;;;;;;;14.89;84.61;102036.88;5085228;28;20407;-80
2021/10/09 08:17:32;;;;;;;3.08;1.58;;;;;;;14.91;84.48;102037.34;5086613;28;20555;-80
2021/10/09 08:19:59;;;;;;;4.78;1.52;;;;;;;14.91;84.51;102031.75;5085720;28;20055;-80
2021/10/09 08:22:28;;;;;;;2.47;0.90;;;;;;;14.89;84.23;102032.13;5085257;28;20077;-81
2021/10/09 08:25:09;;;;;;;1.75;0.50;;;;;;;14.86;84.55;102032.78;5085668;28;20052;-80
2021/10/09 08:27:48;;;;;;;1.08;0.47;;;;;;;14.87;84.41;102044.75;5086523;28;20800;-80
2021/10/09 08:41:47;;;;;;;1.33;1.23;;;;;;;14.95;84.40;102053.06;5004164;28;20060;-79
2021/10/09 08:44:14;;;;;;;4.32;0.73;;;;;;;14.99;84.39;102065.13;5079148;28;20056;-80
2021/10/09 08:46:41;;;;;;;1.20;0.30;;;;;;;14.97;84.40;102056.31;5085787;28;20508;-80
2021/10/09 08:49:08;;;;;;;2.75;0.38;;;;;;;15.01;84.54;102056.44;5083707;28;20035;-80
2021/10/09 08:51:37;;;;;;;0.65;0.65;;;;;;;15.07;84.48;102061.44;5086851;28;20044;-80
2021/10/09 08:54:09;;;;;;;0.30;0.30;;;;;;;15.09;84.64;102059.13;5088442;28;20044;-80
2021/10/09 08:56:46;;;;;;;0.77;0.50;;;;;;;15.18;84.68;102062.66;5089561;28;20054;-80
2021/10/09 08:59:25;;;;;;;0.85;0.85;;;;;;;15.23;84.75;102056.84;5088920;28;20036;-80
2021/10/09 09:02:12;;;;;;;0.55;0.30;;;;;;;15.28;84.67;102061.38;5089525;28;20044;-79
2021/10/09 09:40:13;;;;;;;1.60;0.85;;;;;;;15.71;84.07;102072.06;5088787;28;20050;-80
2021/10/09 09:42:51;;;;;;;1.20;0.50;;;;;;;15.71;83.96;102077.66;5086813;28;20072;-80
2021/10/09 09:45:26;;;;;;;1.50;0.38;;;;;;;15.74;84.22;102076.97;5087920;28;20452;-80
2021/10/09 09:47:56;;;;;;;1.52;0.30;;;;;;;15.76;84.08;102088.59;5087198;28;20158;-80
2021/10/09 09:50:23;;;;;;;3.15;0.57;;;;;;;15.75;84.37;102078.63;5084062;28;20870;-80
2021/10/09 09:52:50;;;;;;;0.38;0.38;;;;;;;15.78;84.06;102083.47;5082482;28;20038;-79
2021/10/09 09:55:19;;;;;;;0.70;0.40;;;;;;;15.80;83.98;102089.56;5085439;28;20495;-81
2021/10/09 09:58:08;;;;;;;0.90;0.35;;;;;;;15.84;83.69;102079.31;5085069;28;20067;-80
2021/10/09 10:00:35;;;;;;;1.30;0.70;;;;;;;15.88;83.69;102085.84;5084099;28;20135;-80
2021/10/09 10:03:03;;;;;;;2.28;0.40;;;;;;;15.91;83.70;102090.72;5088785;28;20052;-83
2021/10/09 10:05:30;;;;;;;1.75;0.85;;;;;;;15.94;83.48;102078.03;5079585;28;20036;-81
2021/10/09 10:07:57;;;;;;;0.68;0.47;;;;;;;15.99;83.66;102081.38;5084445;28;20200;-80
2021/10/09 10:10:24;;;;;;;2.25;0.57;;;;;;;16.05;83.57;102084.75;5085725;28;20503;-80
2021/10/09 10:12:57;;;;;;;0.40;0.30;;;;;;;16.11;83.45;102084.19;5067920;28;20052;-81
2021/10/09 10:15:29;;;;;;;1.70;0.47;;;;;;;16.15;83.47;102078.72;5084547;28;20101;-81
2021/10/09 10:17:58;;;;;;;0.50;0.40;;;;;;;16.20;83.22;102089.66;5083394;28;20054;-80
2021/10/09 10:20:47;;;;;;;3.78;0.93;;;;;;;16.20;83.30;102096.03;5083156;28;20044;-80
2021/10/09 10:23:36;;;;;;;1.75;0.30;;;;;;;16.22;83.10;102090.13;5084350;28;20066;-81
2021/10/09 10:26:31;;;;;;;0.77;0.30;;;;;;;16.23;83.27;102086.97;5084370;28;20481;-81
2021/10/09 10:28:57;;;;;;;0.63;0.40;;;;;;;16.28;83.20;102089.50;5078776;28;20152;-80
2021/10/09 10:31:26;;;;;;;2.85;0.60;;;;;;;16.30;82.68;102095.59;5085089;28;20080;-80
2021/10/09 10:34:18;;;;;;;1.67;0.65;;;;;;;16.31;82.57;102102.78;5084497;28;20058;-80
2021/10/09 10:36:46;;;;;;;0.65;0.40;;;;;;;16.29;82.50;102113.50;5084814;28;20040;-81
2021/10/09 10:39:18;;;;;;;2.00;0.50;;;;;;;16.25;82.32;102107.00;5084017;28;20044;-81
2021/10/09 10:41:49;;;;;;;0.73;0.30;;;;;;;16.20;82.08;102121.19;5080279;28;20529;-80
2021/10/09 10:45:12;;;;;;;1.92;0.70;;;;;;;16.18;81.88;102115.16;5084605;28;20042;-80
2021/10/09 10:48:15;;;;;;;2.22;0.50;;;;;;;16.17;81.97;102119.13;5082542;28;20128;-80
2021/10/09 10:53:13;;;;;;;1.33;0.68;;;;;;;16.27;81.80;102121.44;5083722;28;20135;-79
2021/10/09 10:56:09;;;;;;;2.88;0.40;;;;;;;16.36;82.16;102110.94;5081500;28;20902;-81
2021/10/09 10:58:37;;;;;;;1.52;0.40;;;;;;;16.52;82.16;102122.22;5083770;28;20036;-80
2021/10/09 11:01:20;;;;;;;14.40;1.33;;;;;;;16.57;81.67;102127.63;5083365;28;20131;-80
2021/10/09 11:03:57;;;;;;;0.60;0.30;;;;;;;16.62;81.23;102116.19;5068050;28;20406;-79
2021/10/09 11:06:25;;;;;;;3.97;1.10;;;;;;;16.72;81.20;102126.06;5083928;28;20701;-79
2021/10/09 11:08:56;;;;;;;10.02;3.72;;;;;;;16.84;81.32;102126.00;5063071;28;20063;-80
2021/10/09 11:11:34;;;;;;;0.80;0.50;;;;;;;16.91;80.56;102131.84;5066958;28;20051;-80
2021/10/09 11:14:01;;;;;;;2.08;0.38;;;;;;;17.08;80.90;102127.94;5083860;28;20044;-81
2021/10/09 11:16:29;;;;;;;1.35;0.95;;;;;;;17.20;80.73;102127.88;5084110;28;20042;-81
2021/10/09 11:18:57;;;;;;;0.52;0.30;;;;;;;17.34;80.44;102131.88;5087979;28;20090;-80
2021/10/09 11:21:24;;;;;;;1.05;0.30;;;;;;;17.46;80.25;102134.63;5085949;28;20169;-81
2021/10/09 11:23:54;;;;;;;2.90;0.30;;;;;;;17.55;80.07;102140.88;5086368;28;20480;-81
2021/10/09 11:26:25;;;;;;;0.60;0.35;;;;;;;17.65;79.29;102153.56;5085254;28;20040;-81
2021/10/09 11:28:59;;;;;;;0.80;0.40;;;;;;;17.63;78.82;102151.13;5083268;28;20096;-80
2021/10/09 11:31:27;;;;;;;1.55;0.60;;;;;;;17.66;79.12;102148.78;5083888;28;20054;-80
2021/10/09 11:33:59;;;;;;;3.45;0.30;;;;;;;17.73;77.89;102149.78;5083579;28;20110;-81
2021/10/09 11:36:28;;;;;;;4.75;1.23;;;;;;;17.70;78.94;102160.88;5086205;28;20043;-80
2021/10/09 11:39:12;;;;;;;1.15;0.75;;;;;;;17.70;78.49;102158.09;5085615;28;20407;-81
2021/10/09 11:41:42;;;;;;;1.85;0.70;;;;;;;17.61;78.46;102159.06;5083007;28;20131;-80
2021/10/09 11:44:30;;;;;;;0.73;0.40;;;;;;;17.56;78.21;102158.50;5084024;28;20036;-80
2021/10/09 11:53:30;;;;;;;4.90;0.90;;;;;;;17.63;78.44;102162.31;5079639;28;20040;-80
2021/10/09 11:55:33;;;;;;;4.05;0.60;;;;;;;17.71;78.11;102174.56;5086540;28;20697;-84
2021/10/09 11:58:04;;;;;;;0.70;0.30;;;;;;;17.70;77.72;102172.09;5083411;28;20491;-82
2021/10/09 12:00:51;;;;;;;2.08;0.50;;;;;;;17.68;77.91;102169.66;5083698;28;20123;-85
2021/10/09 12:03:36;;;;;;;1.30;0.50;;;;;;;17.72;77.11;102169.75;5084106;28;20036;-81
2021/10/09 12:06:11;;;;;;;0.65;0.45;;;;;;;17.66;77.52;102171.19;5084835;28;20050;-81
2021/10/09 12:08:51;;;;;;;0.85;0.20;;;;;;;17.63;77.37;102172.72;5086163;28;20076;-81
2021/10/09 12:11:25;;;;;;;4.03;0.68;;;;;;;17.61;77.50;102187.06;5065497;28;20044;-81
2021/10/09 12:13:57;;;;;;;2.58;0.65;;;;;;;17.63;77.65;102179.13;5083587;28;20067;-81
2021/10/09 12:16:35;;;;;;;1.70;0.60;;;;;;;17.64;77.13;102175.16;5085941;28;20040;-81
2021/10/09 12:19:20;;;;;;;3.38;0.70;;;;;;;17.69;77.54;102176.06;5087718;28;20395;-81
2021/10/09 12:21:53;;;;;;;2.13;0.40;;;;;;;17.80;77.18;102165.97;5084448;28;20093;-80
2021/10/09 12:24:25;;;;;;;0.90;0.45;;;;;;;17.86;76.89;102175.72;5083753;28;20403;-81
2021/10/09 12:27:06;;;;;;;0.73;0.57;;;;;;;17.94;76.27;102171.94;5085548;28;20043;-81
2021/10/09 12:29:35;;;;;;;1.55;0.55;;;;;;;18.02;76.63;102179.38;5088889;28;20040;-81
2021/10/09 12:32:19;;;;;;;0.55;0.55;;;;;;;18.19;76.60;102171.41;5088700;28;20048;-81
2021/10/09 12:34:47;;;;;;;0.68;0.38;;;;;;;18.41;76.38;102183.94;5089186;28;20036;-80
2021/10/09 12:37:16;;;;;;;2.35;0.40;;;;;;;18.45;76.37;102184.88;5088696;28;20487;-80
2021/10/09 12:39:44;;;;;;;0.38;0.32;;;;;;;18.49;75.97;102182.97;5088208;28;20036;-80
2021/10/09 12:42:14;;;;;;;0.35;0.35;;;;;;;18.52;75.86;102187.88;5088529;28;20425;-79
2021/10/09 12:44:41;;;;;;;1.65;0.68;;;;;;;18.51;75.31;102186.22;5089439;28;20046;-78
2021/10/09 12:47:07;;;;;;;3.13;0.60;;;;;;;18.48;75.16;102181.34;5090730;28;20051;-79
2021/10/09 12:49:34;;;;;;;1.00;0.30;;;;;;;18.43;75.01;102183.56;5071122;28;20043;-78
2021/10/09 12:52:01;;;;;;;1.30;0.80;;;;;;;18.34;75.15;102189.41;5091245;28;20047;-78
2021/10/09 12:54:30;;;;;;;0.43;0.30;;;;;;;18.40;75.40;102187.13;5089933;28;20048;-78
2021/10/09 12:56:56;;;;;;;0.40;0.40;;;;;;;18.51;74.74;102191.84;5088441;28;20123;-78
2021/10/09 12:59:23;;;;;;;1.52;1.42;;;;;;;18.61;74.61;102191.28;5088445;28;20127;-78
2021/10/09 13:01:50;;;;;;;0.73;0.50;;;;;;;18.62;74.81;102187.31;5085187;28;20044;-77
2021/10/09 13:04:17;;;;;;;0.70;0.70;;;;;;;18.58;74.39;102189.22;5089768;28;20036;-79
2021/10/09 13:06:43;;;;;;;1.67;0.57;;;;;;;18.56;74.50;102188.75;5089063;28;20058;-80
2021/10/09 13:09:12;;;;;;;0.70;0.52;;;;;;;18.56;74.24;102177.53;5090158;28;20044;-79
2021/10/09 13:11:46;;;;;;;3.30;0.40;;;;;;;18.66;74.59;102190.19;5086415;28;20043;-79
2021/10/09 13:14:13;;;;;;;3.25;0.70;;;;;;;18.65;73.95;102192.19;5088782;28;20059;-79
2021/10/09 13:16:40;;;;;;;4.82;0.90;;;;;;;18.64;74.15;102186.91;5085040;28;20040;-79
2021/10/09 13:19:07;;;;;;;0.60;0.40;;;;;;;18.69;74.03;102187.44;5087188;28;20237;-78
2021/10/09 13:21:35;;;;;;;1.33;0.65;;;;;;;18.71;73.84;102187.09;5086718;28;20050;-79
2021/10/09 13:24:01;;;;;;;1.90;0.60;;;;;;;18.70;73.87;102180.69;5087783;28;20472;-79
2021/10/09 13:26:28;;;;;;;2.15;0.52;;;;;;;18.68;73.84;102185.84;5089703;28;20132;-79
2021/10/09 13:28:55;;;;;;;3.97;0.50;;;;;;;18.72;73.84;102185.91;5089272;28;20487;-79
2021/10/09 13:31:21;;;;;;;1.58;0.50;;;;;;;18.77;73.70;102189.25;5100968;28;20040;-79
2021/10/09 13:33:48;;;;;;;0.40;0.40;;;;;;;18.84;73.66;102188.59;5090545;28;20036;-80
2021/10/09 13:36:15;;;;;;;1.88;0.65;;;;;;;18.85;73.70;102182.63;5086425;28;20511;-79
2021/10/09 13:38:44;;;;;;;0.32;0.32;;;;;;;18.82;73.45;102185.38;5087257;28;20127;-80
2021/10/09 13:41:13;;;;;;;1.95;0.75;;;;;;;18.72;73.69;102181.13;5088021;28;20130;-79
2021/10/09 13:43:40;;;;;;;0.47;0.40;;;;;;;18.71;74.07;102185.13;5088608;28;20511;-78
2021/10/09 13:46:08;;;;;;;0.63;0.50;;;;;;;18.71;73.96;102181.50;5087486;28;20484;-79
2021/10/09 13:48:35;;;;;;;0.77;0.60;;;;;;;18.67;73.96;102192.63;5086551;28;20031;-79
2021/10/09 13:51:01;;;;;;;1.90;0.68;;;;;;;18.65;74.02;102192.19;5083864;28;20047;-79
2021/10/09 13:53:28;;;;;;;0.82;0.40;;;;;;;18.60;74.18;102200.88;5084109;28;20135;-79
2021/10/09 13:55:55;;;;;;;2.63;0.70;;;;;;;18.56;74.27;102199.19;5086611;28;20134;-79